createdAt,value
2022-10-19T00:00:46.192Z,11.30
2022-10-19T00:01:46.296Z,10.40
2022-10-19T00:02:46.162Z,10.70
2022-10-19T00:03:46.237Z,10.00
2022-10-19T00:04:46.154Z,9.90
2022-10-19T00:05:46.173Z,10.60
2022-10-19T00:06:46.168Z,10.20
2022-10-19T00:07:46.108Z,9.10
2022-10-19T00:08:46.253Z,9.10
2022-10-19T00:09:46.182Z,8.70
2022-10-19T00:10:46.228Z,8.70
2022-10-19T00:11:46.465Z,8.80
2022-10-19T00:12:46.052Z,8.50
2022-10-19T00:13:46.022Z,8.00
2022-10-19T00:14:46.035Z,7.30
2022-10-19T00:15:46.058Z,7.10
2022-10-19T00:16:46.023Z,7.90
2022-10-19T00:17:45.992Z,8.00
2022-10-19T00:18:45.986Z,6.90
2022-10-19T00:19:45.987Z,7.10
2022-10-19T00:20:46.277Z,8.20
2022-10-19T00:21:46.000Z,7.90
2022-10-19T00:22:45.916Z,7.80
2022-10-19T00:23:45.910Z,7.00
2022-10-19T00:24:45.876Z,7.10
2022-10-19T00:25:45.889Z,7.30
2022-10-19T00:26:45.882Z,7.10
2022-10-19T00:27:45.865Z,7.30
2022-10-19T00:28:45.933Z,6.50
2022-10-19T00:29:45.842Z,6.70
2022-10-19T00:30:45.886Z,7.10
2022-10-19T00:31:45.817Z,6.70
2022-10-19T00:32:45.771Z,5.90
2022-10-19T00:33:45.754Z,5.80
2022-10-19T00:34:45.753Z,6.20
2022-10-19T00:35:45.785Z,5.60
2022-10-19T00:36:45.709Z,6.00
2022-10-19T00:37:45.708Z,6.20
2022-10-19T00:38:45.741Z,6.60
2022-10-19T00:39:45.829Z,6.60
2022-10-19T00:40:45.725Z,5.70
2022-10-19T00:41:45.658Z,5.90
2022-10-19T00:42:45.687Z,5.60
2022-10-19T00:43:45.642Z,5.80
2022-10-19T00:44:45.667Z,6.10
2022-10-19T00:45:45.616Z,6.10
2022-10-19T00:46:45.592Z,5.70
2022-10-19T00:47:45.636Z,4.80
2022-10-19T00:48:45.654Z,4.70
2022-10-19T00:49:45.580Z,5.60
2022-10-19T00:50:45.577Z,4.90
2022-10-19T00:51:45.669Z,4.40
2022-10-19T00:52:45.610Z,4.90
2022-10-19T00:53:45.589Z,5.00
2022-10-19T00:54:45.591Z,4.90
2022-10-19T00:55:45.531Z,4.90
2022-10-19T00:56:45.575Z,4.70
2022-10-19T00:57:45.571Z,4.90
2022-10-19T00:58:45.480Z,5.20
2022-10-19T00:59:45.440Z,4.10
2022-10-19T01:00:45.508Z,5.00
2022-10-19T01:01:45.504Z,4.80
2022-10-19T01:02:45.417Z,5.00
2022-10-19T01:03:45.509Z,5.00
2022-10-19T01:04:45.513Z,4.90
2022-10-19T01:05:45.474Z,4.50
2022-10-19T01:06:45.625Z,4.90
2022-10-19T01:07:45.564Z,4.60
2022-10-19T01:08:45.556Z,4.20
2022-10-19T01:09:46.182Z,4.40
2022-10-19T01:10:45.444Z,4.40
2022-10-19T01:11:45.369Z,4.40
2022-10-19T01:12:45.771Z,4.20
2022-10-19T01:13:45.438Z,4.30
2022-10-19T01:14:45.309Z,4.40
2022-10-19T01:15:45.346Z,4.20
2022-10-19T01:16:45.337Z,4.50
2022-10-19T01:17:45.247Z,4.50
2022-10-19T01:18:45.290Z,4.10
2022-10-19T01:19:45.264Z,4.30
2022-10-19T01:20:45.203Z,4.50
2022-10-19T01:21:45.229Z,4.40
2022-10-19T01:22:46.137Z,5.00
2022-10-19T01:23:45.107Z,4.00
2022-10-19T01:24:45.166Z,4.00
2022-10-19T01:25:45.083Z,3.20
2022-10-19T01:26:45.062Z,3.60
2022-10-19T01:27:45.050Z,4.40
2022-10-19T01:28:45.145Z,4.10
2022-10-19T01:29:45.052Z,4.20
2022-10-19T01:30:45.043Z,3.70
2022-10-19T01:31:45.036Z,4.10
2022-10-19T01:32:45.006Z,4.50
2022-10-19T01:33:44.979Z,3.90
2022-10-19T01:34:44.953Z,4.10
2022-10-19T01:35:44.950Z,3.60
2022-10-19T01:36:45.017Z,3.90
2022-10-19T01:37:44.955Z,4.00
2022-10-19T01:38:44.937Z,3.90
2022-10-19T01:39:47.707Z,3.80
2022-10-19T01:40:44.896Z,4.00
2022-10-19T01:41:45.100Z,3.90
2022-10-19T01:42:44.942Z,4.30
2022-10-19T01:43:44.934Z,3.40
2022-10-19T01:44:44.884Z,3.90
2022-10-19T01:45:45.721Z,4.20
2022-10-19T01:46:44.967Z,3.70
2022-10-19T01:47:44.786Z,4.10
2022-10-19T01:48:44.790Z,3.60
2022-10-19T01:49:44.828Z,3.40
2022-10-19T01:50:44.770Z,4.00
2022-10-19T01:51:44.740Z,3.20
2022-10-19T01:52:44.771Z,3.90
2022-10-19T01:53:44.694Z,3.80
2022-10-19T01:54:44.693Z,3.50
2022-10-19T01:55:44.699Z,3.80
2022-10-19T01:56:44.693Z,4.20
2022-10-19T01:57:44.660Z,3.70
2022-10-19T01:58:44.635Z,4.00
2022-10-19T01:59:44.615Z,3.60
2022-10-19T02:00:44.677Z,3.90
2022-10-19T02:01:44.616Z,3.70
2022-10-19T02:02:44.661Z,3.70
2022-10-19T02:03:44.589Z,3.80
2022-10-19T02:04:44.589Z,4.00
2022-10-19T02:05:44.558Z,3.50
2022-10-19T02:06:44.527Z,3.60
2022-10-19T02:07:44.511Z,3.70
2022-10-19T02:08:44.519Z,3.60
2022-10-19T02:09:44.524Z,4.00
2022-10-19T02:10:44.488Z,3.50
2022-10-19T02:11:47.942Z,3.70
2022-10-19T02:12:44.867Z,3.50
2022-10-19T02:13:44.842Z,3.40
2022-10-19T02:14:44.815Z,3.40
2022-10-19T02:15:44.444Z,3.20
2022-10-19T02:16:44.419Z,2.90
2022-10-19T02:17:44.743Z,3.20
2022-10-19T02:18:44.511Z,3.70
2022-10-19T02:19:44.558Z,2.80
2022-10-19T02:20:44.358Z,4.00
2022-10-19T02:21:44.364Z,3.70
2022-10-19T02:22:44.354Z,3.00
2022-10-19T02:23:44.330Z,3.30
2022-10-19T02:24:44.345Z,3.70
2022-10-19T02:25:44.308Z,3.30
2022-10-19T02:26:44.311Z,3.80
2022-10-19T02:27:44.332Z,3.00
2022-10-19T02:28:45.152Z,3.20
2022-10-19T02:29:44.255Z,3.60
2022-10-19T02:30:44.347Z,3.50
2022-10-19T02:31:44.248Z,3.20
2022-10-19T02:32:44.249Z,4.00
2022-10-19T02:33:44.311Z,3.70
2022-10-19T02:34:44.452Z,3.10
2022-10-19T02:35:44.152Z,3.60
2022-10-19T02:36:44.229Z,4.00
2022-10-19T02:37:44.519Z,3.20
2022-10-19T02:38:44.236Z,3.20
2022-10-19T02:39:44.116Z,3.40
2022-10-19T02:40:44.158Z,3.30
2022-10-19T02:41:44.225Z,3.00
2022-10-19T02:42:44.141Z,3.40
2022-10-19T02:43:44.114Z,3.20
2022-10-19T02:44:44.032Z,2.40
2022-10-19T02:45:44.062Z,2.50
2022-10-19T02:46:44.044Z,2.70
2022-10-19T02:47:44.150Z,2.40
2022-10-19T02:48:43.989Z,2.70
2022-10-19T02:49:44.063Z,3.30
2022-10-19T02:50:44.063Z,2.80
2022-10-19T02:51:43.975Z,2.50
2022-10-19T02:52:44.003Z,3.00
2022-10-19T02:53:43.951Z,3.00
2022-10-19T02:54:43.933Z,2.40
2022-10-19T02:55:43.905Z,2.80
2022-10-19T02:56:43.882Z,2.60
2022-10-19T02:57:44.334Z,2.50
2022-10-19T02:58:43.925Z,3.40
2022-10-19T02:59:43.946Z,2.90
2022-10-19T03:00:43.867Z,2.50
2022-10-19T03:01:44.154Z,2.50
2022-10-19T03:02:44.717Z,3.30
2022-10-19T03:03:43.909Z,2.80
2022-10-19T03:04:44.795Z,2.80
2022-10-19T03:05:43.914Z,3.20
2022-10-19T03:06:43.898Z,3.50
2022-10-19T03:07:43.833Z,2.90
2022-10-19T03:08:44.036Z,3.30
2022-10-19T03:09:43.750Z,3.70
2022-10-19T03:10:43.799Z,2.60
2022-10-19T03:11:43.828Z,3.70
2022-10-19T03:12:43.682Z,4.00
2022-10-19T03:13:43.938Z,3.50
2022-10-19T03:14:43.656Z,3.60
2022-10-19T03:15:43.655Z,4.00
2022-10-19T03:16:43.669Z,3.00
2022-10-19T03:17:43.645Z,3.00
2022-10-19T03:18:43.606Z,3.40
2022-10-19T03:19:43.590Z,3.30
2022-10-19T03:20:43.574Z,3.10
2022-10-19T03:21:43.538Z,2.30
2022-10-19T03:22:43.666Z,3.20
2022-10-19T03:23:43.556Z,2.60
2022-10-19T03:24:43.509Z,3.20
2022-10-19T03:25:43.545Z,2.70
2022-10-19T03:26:43.529Z,3.30
2022-10-19T03:27:43.460Z,3.00
2022-10-19T03:28:43.563Z,2.70
2022-10-19T03:29:43.447Z,2.70
2022-10-19T03:30:43.459Z,2.90
2022-10-19T03:31:43.437Z,2.40
2022-10-19T03:32:43.406Z,2.60
2022-10-19T03:33:43.396Z,2.40
2022-10-19T03:34:43.401Z,1.90
2022-10-19T03:35:43.370Z,2.30
2022-10-19T03:36:43.387Z,2.40
2022-10-19T03:37:43.338Z,2.10
2022-10-19T03:38:43.324Z,2.00
2022-10-19T03:39:43.330Z,1.80
2022-10-19T03:40:43.335Z,1.70
2022-10-19T03:41:43.294Z,2.10
2022-10-19T03:42:43.287Z,2.20
2022-10-19T03:43:43.342Z,1.90
2022-10-19T03:44:43.342Z,1.80
2022-10-19T03:45:43.339Z,2.40
2022-10-19T03:46:43.275Z,2.00
2022-10-19T03:47:43.239Z,2.00
2022-10-19T03:48:43.363Z,1.80
2022-10-19T03:49:43.323Z,1.70
2022-10-19T03:50:43.285Z,1.80
2022-10-19T03:51:43.196Z,1.60
2022-10-19T03:52:43.155Z,1.60
2022-10-19T03:53:43.256Z,1.90
2022-10-19T03:54:43.337Z,1.40
2022-10-19T03:55:43.108Z,1.70
2022-10-19T03:56:43.275Z,1.60
2022-10-19T03:57:43.078Z,1.40
2022-10-19T03:58:43.056Z,1.50
2022-10-19T03:59:43.054Z,2.50
2022-10-19T04:00:43.096Z,3.80
2022-10-19T04:01:43.040Z,2.10
2022-10-19T04:02:43.019Z,1.60
2022-10-19T04:03:42.989Z,1.70
2022-10-19T04:04:42.995Z,1.40
2022-10-19T04:05:43.000Z,1.40
2022-10-19T04:06:42.979Z,1.60
2022-10-19T04:07:42.972Z,1.60
2022-10-19T04:08:42.970Z,1.30
2022-10-19T04:09:42.914Z,1.60
2022-10-19T04:10:42.901Z,1.20
2022-10-19T04:11:42.905Z,1.40
2022-10-19T04:12:42.875Z,1.10
2022-10-19T04:13:42.886Z,1.50
2022-10-19T04:14:56.726Z,1.10
2022-10-19T04:15:42.865Z,1.50
2022-10-19T04:16:42.841Z,1.30
2022-10-19T04:17:45.644Z,1.10
2022-10-19T04:18:42.829Z,1.60
2022-10-19T04:19:42.809Z,1.50
2022-10-19T04:20:42.771Z,1.90
2022-10-19T04:21:42.773Z,1.60
2022-10-19T04:22:42.743Z,1.40
2022-10-19T04:23:42.728Z,1.10
2022-10-19T04:24:42.712Z,1.10
2022-10-19T04:25:42.717Z,1.30
2022-10-19T04:26:42.684Z,0.90
2022-10-19T04:27:42.706Z,1.00
2022-10-19T04:28:42.738Z,1.20
2022-10-19T04:29:42.664Z,1.00
2022-10-19T04:30:42.654Z,1.40
2022-10-19T04:31:42.641Z,1.50
2022-10-19T04:32:42.619Z,1.30
2022-10-19T04:33:42.668Z,1.30
2022-10-19T04:34:42.611Z,1.20
2022-10-19T04:35:42.590Z,1.00
2022-10-19T04:36:42.599Z,1.10
2022-10-19T04:37:42.544Z,1.40
2022-10-19T04:38:42.560Z,1.00
2022-10-19T04:39:42.544Z,1.20
2022-10-19T04:40:42.502Z,1.40
2022-10-19T04:41:42.498Z,1.30
2022-10-19T04:42:42.479Z,1.20
2022-10-19T04:43:42.471Z,0.90
2022-10-19T04:44:42.489Z,0.80
2022-10-19T04:45:42.426Z,1.10
2022-10-19T04:46:42.443Z,1.40
2022-10-19T04:47:42.457Z,1.00
2022-10-19T04:48:42.415Z,1.40
2022-10-19T04:49:42.405Z,0.90
2022-10-19T04:50:42.386Z,1.20
2022-10-19T04:51:42.383Z,1.20
2022-10-19T04:52:42.380Z,1.30
2022-10-19T04:53:42.346Z,0.90
2022-10-19T04:54:42.335Z,1.20
2022-10-19T04:55:42.334Z,1.10
2022-10-19T04:56:42.307Z,0.90
2022-10-19T04:57:42.322Z,0.90
2022-10-19T04:58:42.292Z,0.90
2022-10-19T04:59:42.271Z,1.50
2022-10-19T05:00:42.321Z,1.10
2022-10-19T05:01:46.404Z,1.40
2022-10-19T05:02:42.222Z,1.30
2022-10-19T05:03:42.240Z,0.90
2022-10-19T05:04:45.124Z,1.20
2022-10-19T05:05:42.175Z,0.90
2022-10-19T05:06:42.186Z,1.00
2022-10-19T05:07:42.153Z,1.30
2022-10-19T05:08:42.127Z,6.00
2022-10-19T05:09:42.126Z,67.50
2022-10-19T05:10:44.292Z,37.60
2022-10-19T05:11:42.112Z,23.00
2022-10-19T05:12:42.101Z,23.90
2022-10-19T05:13:42.088Z,11.40
2022-10-19T05:14:42.973Z,18.80
2022-10-19T05:15:42.074Z,25.10
2022-10-19T05:16:42.050Z,23.50
2022-10-19T05:17:42.032Z,19.70
2022-10-19T05:18:42.016Z,13.90
2022-10-19T05:19:42.009Z,6.40
2022-10-19T05:20:41.972Z,4.70
2022-10-19T05:21:42.002Z,4.90
2022-10-19T05:22:41.964Z,2.60
2022-10-19T05:23:41.990Z,1.50
2022-10-19T05:24:41.915Z,2.40
2022-10-19T05:25:41.924Z,1.60
2022-10-19T05:26:41.911Z,1.90
2022-10-19T05:27:41.911Z,1.60
2022-10-19T05:28:41.887Z,1.60
2022-10-19T05:29:41.935Z,1.70
2022-10-19T05:30:45.424Z,1.90
2022-10-19T05:31:41.856Z,1.60
2022-10-19T05:32:41.816Z,2.20
2022-10-19T05:33:41.827Z,1.80
2022-10-19T05:34:41.799Z,1.50
2022-10-19T05:35:41.782Z,1.30
2022-10-19T05:36:41.774Z,1.20
2022-10-19T05:37:41.806Z,1.60
2022-10-19T05:38:41.746Z,1.50
2022-10-19T05:39:41.747Z,1.30
2022-10-19T05:40:41.725Z,1.30
2022-10-19T05:41:41.701Z,1.50
2022-10-19T05:42:41.701Z,1.20
2022-10-19T05:43:41.727Z,1.20
2022-10-19T05:44:41.684Z,1.60
2022-10-19T05:45:41.672Z,1.60
2022-10-19T05:46:41.640Z,1.10
2022-10-19T05:47:41.659Z,1.00
2022-10-19T05:48:41.625Z,0.80
2022-10-19T05:49:41.676Z,1.00
2022-10-19T05:50:41.595Z,1.00
2022-10-19T05:51:41.579Z,0.90
2022-10-19T05:52:41.592Z,0.70
2022-10-19T05:53:41.591Z,0.90
2022-10-19T05:54:41.565Z,0.70
2022-10-19T05:55:41.538Z,0.90
2022-10-19T05:56:41.563Z,1.00
2022-10-19T05:57:41.491Z,0.60
2022-10-19T05:58:41.487Z,1.00
2022-10-19T05:59:41.472Z,0.80
2022-10-19T06:00:41.452Z,0.70
2022-10-19T06:01:41.502Z,0.60
2022-10-19T06:02:41.483Z,0.80
2022-10-19T06:03:41.432Z,0.70
2022-10-19T06:04:41.445Z,0.80
2022-10-19T06:05:41.450Z,0.80
2022-10-19T06:06:41.376Z,0.60
2022-10-19T06:07:41.368Z,0.70
2022-10-19T06:08:41.345Z,0.90
2022-10-19T06:09:41.359Z,0.70
2022-10-19T06:10:41.320Z,0.90
2022-10-19T06:11:41.321Z,1.00
2022-10-19T06:12:41.318Z,0.90
2022-10-19T06:13:41.308Z,0.80
2022-10-19T06:14:41.325Z,1.10
2022-10-19T06:15:41.318Z,0.60
2022-10-19T06:16:41.316Z,0.50
2022-10-19T06:17:41.257Z,0.80
2022-10-19T06:18:41.842Z,1.00
2022-10-19T06:19:41.229Z,0.90
2022-10-19T06:20:41.234Z,1.00
2022-10-19T06:21:43.397Z,0.90
2022-10-19T06:22:41.195Z,0.80
2022-10-19T06:24:41.180Z,1.20
2022-10-19T06:25:41.183Z,0.60
2022-10-19T06:26:41.123Z,0.90
2022-10-19T06:27:41.191Z,1.00
2022-10-19T06:28:41.140Z,0.80
2022-10-19T06:29:41.153Z,1.00
2022-10-19T06:30:41.122Z,0.90
2022-10-19T06:31:41.111Z,0.60
2022-10-19T06:32:41.052Z,0.60
2022-10-19T06:33:41.170Z,0.90
2022-10-19T06:34:41.046Z,0.80
2022-10-19T06:35:41.010Z,0.70
2022-10-19T06:36:41.021Z,0.70
2022-10-19T06:37:40.990Z,0.90
2022-10-19T06:38:40.984Z,0.90
2022-10-19T06:39:41.040Z,0.80
2022-10-19T06:40:40.958Z,1.10
2022-10-19T06:41:40.929Z,0.90
2022-10-19T06:42:40.923Z,0.70
2022-10-19T06:43:40.893Z,0.90
2022-10-19T06:44:40.899Z,1.50
2022-10-19T06:45:40.856Z,0.70
2022-10-19T06:46:40.867Z,0.80
2022-10-19T06:47:40.910Z,1.00
2022-10-19T06:48:40.858Z,1.00
2022-10-19T06:49:40.891Z,0.90
2022-10-19T06:50:40.793Z,1.00
2022-10-19T06:51:40.802Z,0.70
2022-10-19T06:52:40.821Z,0.90
2022-10-19T06:53:40.773Z,0.80
2022-10-19T06:54:40.761Z,1.10
2022-10-19T06:55:40.748Z,0.80
2022-10-19T06:56:40.767Z,0.90
2022-10-19T06:57:40.749Z,0.70
2022-10-19T06:58:40.724Z,0.90
2022-10-19T06:59:40.704Z,0.80
2022-10-19T07:00:40.737Z,1.10
2022-10-19T07:01:40.711Z,0.60
2022-10-19T07:02:40.692Z,1.00
2022-10-19T07:03:40.646Z,0.50
2022-10-19T07:04:40.625Z,0.90
2022-10-19T07:05:40.597Z,0.80
2022-10-19T07:06:40.582Z,0.80
2022-10-19T07:07:40.604Z,0.90
2022-10-19T07:08:40.553Z,1.10
2022-10-19T07:09:40.566Z,0.90
2022-10-19T07:10:40.594Z,1.00
2022-10-19T07:11:45.645Z,1.20
2022-10-19T07:12:40.513Z,1.10
2022-10-19T07:13:40.524Z,0.70
2022-10-19T07:14:40.515Z,0.90
2022-10-19T07:15:40.487Z,0.80
2022-10-19T07:16:40.458Z,1.10
2022-10-19T07:17:40.493Z,1.00
2022-10-19T07:18:40.451Z,0.70
2022-10-19T07:19:40.406Z,0.90
2022-10-19T07:20:40.430Z,1.10
2022-10-19T07:21:40.397Z,0.80
2022-10-19T07:22:40.410Z,0.80
2022-10-19T07:23:40.436Z,0.80
2022-10-19T07:24:40.370Z,1.10
2022-10-19T07:25:40.365Z,1.00
2022-10-19T07:26:40.344Z,1.00
2022-10-19T07:27:40.640Z,0.70
2022-10-19T07:28:40.323Z,0.70
2022-10-19T07:29:40.300Z,1.20
2022-10-19T07:30:40.253Z,0.80
2022-10-19T07:31:40.290Z,0.80
2022-10-19T07:32:43.199Z,1.00
2022-10-19T07:33:40.272Z,0.70
2022-10-19T07:34:40.234Z,1.10
2022-10-19T07:35:40.196Z,0.80
2022-10-19T07:36:40.224Z,0.90
2022-10-19T07:37:40.193Z,1.00
2022-10-19T07:38:40.181Z,0.70
2022-10-19T07:39:40.225Z,0.70
2022-10-19T07:40:44.746Z,0.60
2022-10-19T07:41:40.146Z,1.00
2022-10-19T07:42:40.107Z,0.90
2022-10-19T07:43:40.115Z,0.70
2022-10-19T07:44:40.109Z,0.70
2022-10-19T07:45:40.065Z,0.70
2022-10-19T07:46:40.058Z,0.60
2022-10-19T07:47:40.040Z,0.80
2022-10-19T07:48:40.027Z,0.70
2022-10-19T07:49:40.033Z,0.60
2022-10-19T07:50:40.001Z,1.00
2022-10-19T07:51:40.066Z,1.40
2022-10-19T07:52:40.252Z,0.80
2022-10-19T07:53:39.987Z,1.00
2022-10-19T07:54:39.971Z,0.90
2022-10-19T07:55:39.975Z,0.60
2022-10-19T07:56:39.975Z,21.30
2022-10-19T07:57:41.571Z,0.80
2022-10-19T07:58:39.897Z,0.80
2022-10-19T07:59:39.901Z,0.80
2022-10-19T08:01:39.913Z,1.00
2022-10-19T08:02:59.789Z,0.80
2022-10-19T08:05:39.853Z,1.00
2022-10-19T08:06:39.795Z,0.60
2022-10-19T08:07:39.776Z,0.70
2022-10-19T08:08:39.818Z,0.70
2022-10-19T08:09:52.821Z,1.10
2022-10-19T08:10:39.753Z,0.70
2022-10-19T08:11:39.764Z,1.40
2022-10-19T08:12:39.761Z,0.90
2022-10-19T08:13:39.692Z,0.60
2022-10-19T08:14:39.680Z,0.60
2022-10-19T08:15:39.682Z,1.20
2022-10-19T08:16:39.675Z,1.00
2022-10-19T08:17:39.666Z,0.80
2022-10-19T08:18:39.685Z,1.30
2022-10-19T08:19:39.635Z,0.60
2022-10-19T08:20:39.639Z,1.00
2022-10-19T08:21:39.607Z,1.00
2022-10-19T08:22:39.610Z,0.70
2022-10-19T08:23:40.422Z,0.70
2022-10-19T08:24:39.562Z,0.60
2022-10-19T08:25:39.594Z,0.70
2022-10-19T08:26:39.530Z,0.90
2022-10-19T08:27:39.519Z,1.00
2022-10-19T08:28:39.534Z,0.90
2022-10-19T08:29:39.482Z,1.00
2022-10-19T08:30:39.506Z,0.80
2022-10-19T08:31:39.481Z,0.90
2022-10-19T08:32:39.467Z,0.70
2022-10-19T08:33:39.464Z,0.80
2022-10-19T08:34:39.448Z,0.90
2022-10-19T08:35:39.425Z,1.10
2022-10-19T08:36:39.429Z,1.10
2022-10-19T08:37:45.143Z,1.00
2022-10-19T08:38:39.405Z,0.80
2022-10-19T08:39:39.374Z,0.70
2022-10-19T08:40:39.363Z,6.20
2022-10-19T08:41:39.375Z,1.10
2022-10-19T08:42:39.344Z,0.70
2022-10-19T08:43:39.354Z,0.70
2022-10-19T08:44:39.343Z,0.60
2022-10-19T08:45:39.281Z,0.60
2022-10-19T08:46:39.305Z,0.60
2022-10-19T08:47:39.284Z,0.60
2022-10-19T08:48:39.265Z,0.70
2022-10-19T08:49:39.254Z,0.70
2022-10-19T08:50:39.237Z,0.90
2022-10-19T08:51:39.217Z,0.70
2022-10-19T08:52:39.253Z,0.80
2022-10-19T08:53:39.233Z,0.80
2022-10-19T08:54:39.226Z,1.10
2022-10-19T08:55:39.223Z,0.60
2022-10-19T08:56:50.593Z,0.80
2022-10-19T08:57:39.154Z,0.70
2022-10-19T08:58:39.135Z,0.60
2022-10-19T08:59:39.112Z,0.60
2022-10-19T09:01:39.093Z,0.90
2022-10-19T09:02:39.078Z,0.60
2022-10-19T09:03:55.735Z,0.80
2022-10-19T09:04:39.062Z,1.20
2022-10-19T09:05:39.030Z,1.00
2022-10-19T09:06:39.005Z,0.90
2022-10-19T09:07:39.037Z,1.30
2022-10-19T09:08:39.059Z,1.00
2022-10-19T09:09:39.018Z,1.00
2022-10-19T09:10:38.963Z,1.20
2022-10-19T09:11:38.945Z,0.70
2022-10-19T09:12:38.940Z,0.90
2022-10-19T09:13:41.637Z,1.30
2022-10-19T09:14:38.917Z,0.80
2022-10-19T09:15:38.873Z,0.90
2022-10-19T09:16:38.873Z,0.90
2022-10-19T09:17:38.847Z,1.20
2022-10-19T09:18:38.922Z,1.20
2022-10-19T09:19:38.841Z,1.20
2022-10-19T09:20:38.853Z,1.20
2022-10-19T09:21:44.593Z,1.20
2022-10-19T09:22:38.832Z,1.10
2022-10-19T09:23:38.767Z,0.70
2022-10-19T09:24:38.774Z,1.10
2022-10-19T09:25:38.758Z,0.90
2022-10-19T09:26:39.023Z,0.80
2022-10-19T09:27:38.716Z,0.90
2022-10-19T09:28:39.968Z,0.90
2022-10-19T09:29:38.747Z,1.30
2022-10-19T09:30:38.710Z,1.10
2022-10-19T09:31:40.612Z,0.90
2022-10-19T09:32:38.958Z,1.20
2022-10-19T09:33:38.736Z,0.70
2022-10-19T09:34:38.629Z,1.20
2022-10-19T09:35:38.658Z,1.40
2022-10-19T09:36:50.030Z,1.30
2022-10-19T09:37:38.602Z,0.90
2022-10-19T09:38:38.594Z,1.10
2022-10-19T09:39:39.957Z,0.80
2022-10-19T09:40:38.568Z,1.00
2022-10-19T09:41:38.532Z,0.80
2022-10-19T09:42:38.636Z,1.20
2022-10-19T09:43:38.542Z,0.90
2022-10-19T09:44:38.508Z,1.10
2022-10-19T09:45:38.498Z,1.10
2022-10-19T09:46:39.020Z,1.40
2022-10-19T09:47:38.780Z,1.10
2022-10-19T09:48:38.475Z,1.00
2022-10-19T09:49:38.496Z,1.00
2022-10-19T09:50:38.425Z,1.00
2022-10-19T09:51:38.401Z,1.00
2022-10-19T09:52:38.389Z,2.40
2022-10-19T09:53:38.383Z,1.10
2022-10-19T09:54:38.398Z,2.20
2022-10-19T09:55:38.459Z,1.40
2022-10-19T09:56:38.422Z,1.10
2022-10-19T09:57:38.332Z,1.20
2022-10-19T09:58:38.320Z,1.20
2022-10-19T09:59:38.293Z,0.80
2022-10-19T10:00:38.300Z,0.90
2022-10-19T10:01:43.067Z,1.20
2022-10-19T10:02:38.614Z,1.30
2022-10-19T10:03:38.273Z,0.80
2022-10-19T10:04:38.303Z,1.30
2022-10-19T10:05:38.244Z,0.70
2022-10-19T10:06:38.249Z,1.10
2022-10-19T10:07:38.221Z,0.90
2022-10-19T10:08:38.265Z,1.20
2022-10-19T10:09:38.203Z,0.90
2022-10-19T10:10:38.186Z,1.10
2022-10-19T10:11:38.192Z,1.40
2022-10-19T10:12:38.168Z,1.10
2022-10-19T10:13:38.119Z,1.00
2022-10-19T10:15:34.142Z,0.90
2022-10-19T10:16:46.463Z,1.00
2022-10-19T10:17:35.535Z,1.30
2022-10-19T10:18:35.412Z,1.20
2022-10-19T10:19:35.277Z,1.00
2022-10-19T10:20:35.264Z,1.30
2022-10-19T10:21:35.231Z,0.90
2022-10-19T10:22:35.531Z,1.50
2022-10-19T10:23:35.281Z,1.00
2022-10-19T10:24:37.231Z,0.90
2022-10-19T10:25:36.788Z,0.90
2022-10-19T10:27:37.707Z,0.70
2022-10-19T10:29:35.540Z,1.00
2022-10-19T10:30:07.162Z,0.90
2022-10-19T10:31:09.130Z,0.60
2022-10-19T10:32:34.480Z,0.90
2022-10-19T10:32:52.944Z,0.60
2022-10-19T10:34:07.532Z,0.90
2022-10-19T10:35:01.221Z,0.70
2022-10-19T10:35:51.763Z,0.70
2022-10-19T10:36:47.396Z,0.90
2022-10-19T10:37:47.064Z,0.90
2022-10-19T10:38:47.328Z,1.00
2022-10-19T10:39:48.837Z,0.60
2022-10-19T10:40:41.588Z,0.90
2022-10-19T10:41:42.421Z,0.90
2022-10-19T10:42:42.317Z,0.80
2022-10-19T10:43:43.652Z,0.90
2022-10-19T10:44:43.464Z,0.50
2022-10-19T10:45:43.319Z,0.70
2022-10-19T10:46:41.361Z,0.30
2022-10-19T10:47:41.939Z,0.70
2022-10-19T10:48:43.408Z,0.80
2022-10-19T10:49:42.368Z,0.30
2022-10-19T10:50:41.568Z,0.40
2022-10-19T10:51:41.471Z,0.60
2022-10-19T10:52:41.452Z,0.60
2022-10-19T10:53:43.550Z,0.40
2022-10-19T10:54:41.615Z,0.40
2022-10-19T10:55:41.038Z,0.60
2022-10-19T10:56:40.745Z,0.50
2022-10-19T10:57:40.730Z,0.70
2022-10-19T10:58:41.393Z,0.60
2022-10-19T10:59:43.184Z,0.40
2022-10-19T11:00:40.642Z,0.80
2022-10-19T11:01:40.624Z,0.40
2022-10-19T11:02:40.820Z,0.70
2022-10-19T11:03:42.121Z,0.40
2022-10-19T11:04:40.754Z,0.50
2022-10-19T11:05:40.728Z,0.40
2022-10-19T11:06:43.684Z,0.50
2022-10-19T11:07:40.764Z,0.40
2022-10-19T11:08:41.718Z,0.30
2022-10-19T11:09:41.414Z,0.50
2022-10-19T11:10:41.379Z,0.50
2022-10-19T11:11:40.613Z,0.60
2022-10-19T11:12:40.576Z,0.50
2022-10-19T11:13:41.491Z,0.30
2022-10-19T11:14:40.636Z,0.30
2022-10-19T11:15:40.504Z,0.40
2022-10-19T11:16:40.580Z,0.40
2022-10-19T11:17:40.537Z,0.30
2022-10-19T11:18:41.338Z,0.50
2022-10-19T11:19:40.855Z,0.40
2022-10-19T11:20:40.329Z,0.40
2022-10-19T11:21:40.626Z,0.30
2022-10-19T11:22:41.293Z,0.30
2022-10-19T11:23:40.608Z,0.40
2022-10-19T11:24:41.890Z,0.30
2022-10-19T11:25:40.560Z,0.40
2022-10-19T11:26:40.401Z,0.30
2022-10-19T11:27:40.681Z,0.50
2022-10-19T11:28:41.433Z,0.60
2022-10-19T11:29:40.661Z,0.50
2022-10-19T11:30:42.489Z,0.50
2022-10-19T11:31:40.328Z,1.60
2022-10-19T11:32:40.506Z,0.40
2022-10-19T11:33:40.331Z,1.40
2022-10-19T11:34:40.308Z,1.50
2022-10-19T11:35:40.130Z,0.50
2022-10-19T11:36:40.327Z,3.70
2022-10-19T11:37:49.454Z,0.50
2022-10-19T11:38:40.137Z,0.60
2022-10-19T11:39:40.479Z,0.50
2022-10-19T11:40:45.785Z,0.40
2022-10-19T11:41:40.196Z,0.40
2022-10-19T11:42:40.139Z,0.50
2022-10-19T11:43:40.126Z,0.40
2022-10-19T11:44:40.169Z,0.30
2022-10-19T11:45:40.086Z,0.30
2022-10-19T11:46:40.109Z,0.30
2022-10-19T11:47:40.130Z,0.50
2022-10-19T11:48:43.050Z,0.30
2022-10-19T11:49:40.009Z,0.40
2022-10-19T11:50:39.982Z,0.60
2022-10-19T11:51:39.981Z,0.50
2022-10-19T11:52:40.101Z,0.50
2022-10-19T11:53:39.947Z,0.40
2022-10-19T11:54:40.057Z,0.60
2022-10-19T11:55:40.296Z,0.50
2022-10-19T11:57:01.793Z,0.80
2022-10-19T11:57:39.903Z,0.70
2022-10-19T11:58:39.916Z,0.40
2022-10-19T11:59:39.913Z,0.40
2022-10-19T12:00:40.132Z,0.30
2022-10-19T12:01:39.786Z,0.40
2022-10-19T12:02:39.705Z,0.30
2022-10-19T12:03:39.671Z,0.40
2022-10-19T12:04:39.652Z,0.60
2022-10-19T12:05:39.672Z,0.40
2022-10-19T12:06:39.732Z,0.50
2022-10-19T12:07:39.724Z,0.30
2022-10-19T12:08:39.739Z,0.50
2022-10-19T12:09:39.652Z,0.50
2022-10-19T12:10:39.606Z,0.60
2022-10-19T12:11:39.649Z,0.40
2022-10-19T12:12:39.633Z,0.50
2022-10-19T12:13:39.621Z,0.60
2022-10-19T12:14:39.610Z,0.40
2022-10-19T12:15:39.549Z,0.40
2022-10-19T12:16:39.509Z,0.40
2022-10-19T12:17:40.366Z,0.40
2022-10-19T12:18:41.429Z,0.20
2022-10-19T12:19:42.574Z,0.60
2022-10-19T12:20:40.897Z,0.30
2022-10-19T12:21:48.341Z,0.30
2022-10-19T12:22:40.856Z,0.60
2022-10-19T12:23:42.661Z,0.40
2022-10-19T12:24:40.007Z,0.30
2022-10-19T12:25:43.492Z,0.50
2022-10-19T12:26:42.632Z,0.40
2022-10-19T12:27:42.282Z,0.50
2022-10-19T12:28:39.932Z,0.40
2022-10-19T12:30:01.805Z,0.70
2022-10-19T12:30:40.045Z,0.60
2022-10-19T12:31:42.772Z,0.50
2022-10-19T12:32:41.907Z,0.60
2022-10-19T12:33:41.047Z,0.40
2022-10-19T12:34:41.928Z,0.30
2022-10-19T12:35:41.672Z,0.40
2022-10-19T12:37:17.115Z,0.30
2022-10-19T12:37:51.842Z,0.50
2022-10-19T12:38:49.439Z,0.60
2022-10-19T12:39:46.359Z,0.60
2022-10-19T12:40:57.372Z,0.40
2022-10-19T12:41:43.504Z,0.30
2022-10-19T12:42:47.886Z,0.40
2022-10-19T12:43:42.497Z,0.60
2022-10-19T12:44:42.761Z,0.50
2022-10-19T12:45:42.741Z,0.60
2022-10-19T12:46:41.025Z,0.30
2022-10-19T12:47:42.735Z,0.50
2022-10-19T12:48:42.671Z,0.40
2022-10-19T12:49:41.044Z,0.40
2022-10-19T12:50:41.624Z,0.50
2022-10-19T12:51:47.608Z,0.30
2022-10-19T12:52:40.824Z,0.40
2022-10-19T12:53:44.104Z,0.40
2022-10-19T12:54:43.193Z,0.60
2022-10-19T12:55:44.944Z,0.30
2022-10-19T12:56:41.775Z,0.40
2022-10-19T12:57:40.912Z,0.40
2022-10-19T12:59:02.672Z,0.40
2022-10-19T12:59:40.976Z,0.40
2022-10-19T13:00:41.344Z,0.40
2022-10-19T13:01:41.211Z,0.40
2022-10-19T13:02:41.642Z,0.40
2022-10-19T13:03:43.148Z,0.30
2022-10-19T13:04:41.522Z,0.30
2022-10-19T13:06:30.679Z,0.40
2022-10-19T13:07:32.026Z,0.50
2022-10-19T13:08:31.736Z,0.50
2022-10-19T13:09:31.689Z,0.80
2022-10-19T13:10:31.621Z,0.50
2022-10-19T13:11:31.717Z,0.60
2022-10-19T13:12:31.612Z,0.40
2022-10-19T13:13:31.596Z,0.40
2022-10-19T13:14:31.621Z,0.60
2022-10-19T13:15:31.609Z,0.50
2022-10-19T13:16:31.637Z,0.90
2022-10-19T13:17:34.019Z,0.40
2022-10-19T13:18:31.536Z,0.70
2022-10-19T13:19:31.534Z,0.60
2022-10-19T13:20:31.545Z,0.90
2022-10-19T13:21:31.593Z,0.60
2022-10-19T13:22:31.490Z,0.40
2022-10-19T13:23:31.533Z,0.60
2022-10-19T13:24:31.493Z,0.70
2022-10-19T13:25:31.445Z,0.60